sensor_id;sensor_type;location;lat;lon;timestamp;temperature;humidity
54202;DHT22;40108;53.152;5.844;2022-12-08T00:01:10;2.80;95.80
54202;DHT22;40108;53.152;5.844;2022-12-08T00:03:36;2.80;96.00
54202;DHT22;40108;53.152;5.844;2022-12-08T00:06:04;2.80;96.10
54202;DHT22;40108;53.152;5.844;2022-12-08T00:08:49;2.90;96.00
54202;DHT22;40108;53.152;5.844;2022-12-08T00:11:33;2.80;95.90
54202;DHT22;40108;53.152;5.844;2022-12-08T00:13:59;2.70;95.90
54202;DHT22;40108;53.152;5.844;2022-12-08T00:16:25;2.70;95.80
54202;DHT22;40108;53.152;5.844;2022-12-08T00:18:51;2.60;95.80
54202;DHT22;40108;53.152;5.844;2022-12-08T00:21:16;2.50;95.80
54202;DHT22;40108;53.152;5.844;2022-12-08T00:23:42;2.50;95.80
54202;DHT22;40108;53.152;5.844;2022-12-08T00:26:08;2.50;95.90
54202;DHT22;40108;53.152;5.844;2022-12-08T00:28:34;2.50;95.90
54202;DHT22;40108;53.152;5.844;2022-12-08T00:31:06;2.50;95.90
54202;DHT22;40108;53.152;5.844;2022-12-08T00:33:32;2.50;95.90
54202;DHT22;40108;53.152;5.844;2022-12-08T00:35:58;2.50;95.90
54202;DHT22;40108;53.152;5.844;2022-12-08T00:38:29;2.50;95.90
54202;DHT22;40108;53.152;5.844;2022-12-08T00:40:54;2.50;95.90
54202;DHT22;40108;53.152;5.844;2022-12-08T00:43:20;2.40;95.90
54202;DHT22;40108;53.152;5.844;2022-12-08T00:45:45;2.40;95.90
54202;DHT22;40108;53.152;5.844;2022-12-08T00:48:11;2.40;95.90
54202;DHT22;40108;53.152;5.844;2022-12-08T00:50:37;2.40;95.90
54202;DHT22;40108;53.152;5.844;2022-12-08T00:53:02;2.40;96.00
54202;DHT22;40108;53.152;5.844;2022-12-08T00:55:28;2.50;96.10
54202;DHT22;40108;53.152;5.844;2022-12-08T00:57:54;2.50;96.10
54202;DHT22;40108;53.152;5.844;2022-12-08T01:00:19;2.50;96.10
54202;DHT22;40108;53.152;5.844;2022-12-08T01:02:45;2.50;96.10
54202;DHT22;40108;53.152;5.844;2022-12-08T01:05:11;2.50;96.10
54202;DHT22;40108;53.152;5.844;2022-12-08T01:07:36;2.60;96.10
54202;DHT22;40108;53.152;5.844;2022-12-08T01:10:02;2.60;96.10
54202;DHT22;40108;53.152;5.844;2022-12-08T01:12:29;2.60;96.20
54202;DHT22;40108;53.152;5.844;2022-12-08T01:14:55;2.60;96.20
54202;DHT22;40108;53.152;5.844;2022-12-08T01:17:20;2.60;96.20
54202;DHT22;40108;53.152;5.844;2022-12-08T01:19:46;2.60;96.20
54202;DHT22;40108;53.152;5.844;2022-12-08T01:22:12;2.60;96.20
54202;DHT22;40108;53.152;5.844;2022-12-08T01:24:37;2.60;96.20
54202;DHT22;40108;53.152;5.844;2022-12-08T01:27:03;2.60;96.20
54202;DHT22;40108;53.152;5.844;2022-12-08T01:29:29;2.60;96.20
54202;DHT22;40108;53.152;5.844;2022-12-08T01:31:54;2.50;96.10
54202;DHT22;40108;53.152;5.844;2022-12-08T01:34:20;2.50;96.10
54202;DHT22;40108;53.152;5.844;2022-12-08T01:36:46;2.50;96.10
54202;DHT22;40108;53.152;5.844;2022-12-08T01:39:16;2.50;96.10
54202;DHT22;40108;53.152;5.844;2022-12-08T01:41:43;2.50;96.10
54202;DHT22;40108;53.152;5.844;2022-12-08T01:46:37;2.40;96.10
54202;DHT22;40108;53.152;5.844;2022-12-08T01:49:20;2.40;96.10
54202;DHT22;40108;53.152;5.844;2022-12-08T01:52:04;2.50;96.10
54202;DHT22;40108;53.152;5.844;2022-12-08T01:54:38;2.50;96.10
54202;DHT22;40108;53.152;5.844;2022-12-08T01:57:34;2.40;96.20
54202;DHT22;40108;53.152;5.844;2022-12-08T02:00:11;2.50;96.20
54202;DHT22;40108;53.152;5.844;2022-12-08T02:02:59;2.60;96.40
54202;DHT22;40108;53.152;5.844;2022-12-08T02:05:32;2.70;96.20
54202;DHT22;40108;53.152;5.844;2022-12-08T02:08:00;2.70;96.20
54202;DHT22;40108;53.152;5.844;2022-12-08T02:10:33;2.80;96.20
54202;DHT22;40108;53.152;5.844;2022-12-08T02:12:59;2.80;96.20
54202;DHT22;40108;53.152;5.844;2022-12-08T02:18:12;2.80;96.20
54202;DHT22;40108;53.152;5.844;2022-12-08T02:23:57;2.70;96.20
54202;DHT22;40108;53.152;5.844;2022-12-08T02:43:38;2.70;96.10
54202;DHT22;40108;53.152;5.844;2022-12-08T02:46:04;2.60;96.10
54202;DHT22;40108;53.152;5.844;2022-12-08T02:48:33;2.40;95.90
54202;DHT22;40108;53.152;5.844;2022-12-08T02:50:59;2.20;95.90
54202;DHT22;40108;53.152;5.844;2022-12-08T02:53:29;2.20;96.00
54202;DHT22;40108;53.152;5.844;2022-12-08T03:07:05;2.10;96.20
54202;DHT22;40108;53.152;5.844;2022-12-08T03:14:53;2.00;96.10
54202;DHT22;40108;53.152;5.844;2022-12-08T03:17:22;2.00;96.20
54202;DHT22;40108;53.152;5.844;2022-12-08T03:19:49;2.00;96.10
54202;DHT22;40108;53.152;5.844;2022-12-08T03:22:18;1.90;96.10
54202;DHT22;40108;53.152;5.844;2022-12-08T03:24:45;1.80;96.00
54202;DHT22;40108;53.152;5.844;2022-12-08T03:27:14;1.70;96.00
54202;DHT22;40108;53.152;5.844;2022-12-08T03:29:41;1.70;96.10
54202;DHT22;40108;53.152;5.844;2022-12-08T03:32:08;1.60;96.20
54202;DHT22;40108;53.152;5.844;2022-12-08T03:34:35;1.50;96.20
54202;DHT22;40108;53.152;5.844;2022-12-08T03:37:04;1.40;96.20
54202;DHT22;40108;53.152;5.844;2022-12-08T03:39:30;1.40;96.30
54202;DHT22;40108;53.152;5.844;2022-12-08T03:41:56;1.40;96.40
54202;DHT22;40108;53.152;5.844;2022-12-08T03:44:21;1.40;96.50
54202;DHT22;40108;53.152;5.844;2022-12-08T03:46:47;1.40;96.50
54202;DHT22;40108;53.152;5.844;2022-12-08T03:49:13;1.40;96.50
54202;DHT22;40108;53.152;5.844;2022-12-08T03:51:38;1.40;96.60
54202;DHT22;40108;53.152;5.844;2022-12-08T03:54:04;1.40;96.60
54202;DHT22;40108;53.152;5.844;2022-12-08T03:56:35;1.40;96.60
54202;DHT22;40108;53.152;5.844;2022-12-08T03:59:02;1.40;96.60
54202;DHT22;40108;53.152;5.844;2022-12-08T04:01:28;1.40;96.70
54202;DHT22;40108;53.152;5.844;2022-12-08T04:03:54;1.50;96.70
54202;DHT22;40108;53.152;5.844;2022-12-08T04:06:20;1.50;96.70
54202;DHT22;40108;53.152;5.844;2022-12-08T04:08:46;1.50;96.80
54202;DHT22;40108;53.152;5.844;2022-12-08T04:11:12;1.50;96.80
54202;DHT22;40108;53.152;5.844;2022-12-08T04:13:38;1.50;96.80
54202;DHT22;40108;53.152;5.844;2022-12-08T04:16:05;1.50;96.80
54202;DHT22;40108;53.152;5.844;2022-12-08T04:18:32;1.40;96.80
54202;DHT22;40108;53.152;5.844;2022-12-08T04:20:58;1.50;96.90
54202;DHT22;40108;53.152;5.844;2022-12-08T04:23:23;1.50;96.90
54202;DHT22;40108;53.152;5.844;2022-12-08T04:25:52;1.40;96.90
54202;DHT22;40108;53.152;5.844;2022-12-08T04:28:18;1.50;96.90
54202;DHT22;40108;53.152;5.844;2022-12-08T04:30:44;1.40;96.90
54202;DHT22;40108;53.152;5.844;2022-12-08T04:33:10;1.40;96.90
54202;DHT22;40108;53.152;5.844;2022-12-08T04:35:35;1.30;97.00
54202;DHT22;40108;53.152;5.844;2022-12-08T04:38:02;1.40;97.00
54202;DHT22;40108;53.152;5.844;2022-12-08T04:40:27;1.40;97.00
54202;DHT22;40108;53.152;5.844;2022-12-08T04:42:53;1.40;97.10
54202;DHT22;40108;53.152;5.844;2022-12-08T04:45:19;1.50;97.10
54202;DHT22;40108;53.152;5.844;2022-12-08T04:47:45;1.50;97.10
54202;DHT22;40108;53.152;5.844;2022-12-08T04:50:10;1.50;97.20
54202;DHT22;40108;53.152;5.844;2022-12-08T04:52:36;1.60;97.20
54202;DHT22;40108;53.152;5.844;2022-12-08T04:55:02;1.60;97.20
54202;DHT22;40108;53.152;5.844;2022-12-08T04:57:28;1.70;97.30
54202;DHT22;40108;53.152;5.844;2022-12-08T04:59:54;1.70;97.20
54202;DHT22;40108;53.152;5.844;2022-12-08T05:02:20;1.60;97.20
54202;DHT22;40108;53.152;5.844;2022-12-08T05:04:45;1.60;97.20
54202;DHT22;40108;53.152;5.844;2022-12-08T05:07:11;1.60;97.20
54202;DHT22;40108;53.152;5.844;2022-12-08T05:09:37;1.50;97.20
54202;DHT22;40108;53.152;5.844;2022-12-08T05:12:03;1.60;97.20
54202;DHT22;40108;53.152;5.844;2022-12-08T05:14:29;1.60;97.20
54202;DHT22;40108;53.152;5.844;2022-12-08T05:16:54;1.50;97.10
54202;DHT22;40108;53.152;5.844;2022-12-08T05:19:20;1.60;97.20
54202;DHT22;40108;53.152;5.844;2022-12-08T05:21:46;1.50;97.10
54202;DHT22;40108;53.152;5.844;2022-12-08T05:24:11;1.50;97.10
54202;DHT22;40108;53.152;5.844;2022-12-08T05:26:37;1.60;97.10
54202;DHT22;40108;53.152;5.844;2022-12-08T05:29:03;1.50;97.10
54202;DHT22;40108;53.152;5.844;2022-12-08T05:31:28;1.50;97.10
54202;DHT22;40108;53.152;5.844;2022-12-08T05:33:54;1.50;97.10
54202;DHT22;40108;53.152;5.844;2022-12-08T05:36:20;1.50;97.20
54202;DHT22;40108;53.152;5.844;2022-12-08T05:38:46;1.50;97.10
54202;DHT22;40108;53.152;5.844;2022-12-08T05:41:14;1.50;97.10
54202;DHT22;40108;53.152;5.844;2022-12-08T05:43:40;1.60;97.20
54202;DHT22;40108;53.152;5.844;2022-12-08T05:46:07;1.70;97.20
54202;DHT22;40108;53.152;5.844;2022-12-08T05:48:33;1.70;97.30
54202;DHT22;40108;53.152;5.844;2022-12-08T05:50:58;1.70;97.30
54202;DHT22;40108;53.152;5.844;2022-12-08T05:53:25;1.80;97.30
54202;DHT22;40108;53.152;5.844;2022-12-08T05:55:51;1.80;97.30
54202;DHT22;40108;53.152;5.844;2022-12-08T05:58:18;1.80;97.30
54202;DHT22;40108;53.152;5.844;2022-12-08T06:00:45;1.80;97.20
54202;DHT22;40108;53.152;5.844;2022-12-08T06:03:11;1.80;97.30
54202;DHT22;40108;53.152;5.844;2022-12-08T06:05:38;1.80;97.20
54202;DHT22;40108;53.152;5.844;2022-12-08T06:08:04;1.80;97.20
54202;DHT22;40108;53.152;5.844;2022-12-08T06:10:30;1.90;97.20
54202;DHT22;40108;53.152;5.844;2022-12-08T06:12:56;1.80;97.10
54202;DHT22;40108;53.152;5.844;2022-12-08T06:15:22;1.80;97.00
54202;DHT22;40108;53.152;5.844;2022-12-08T06:17:47;1.80;97.00
54202;DHT22;40108;53.152;5.844;2022-12-08T06:20:13;1.80;97.00
54202;DHT22;40108;53.152;5.844;2022-12-08T06:22:39;1.70;96.90
54202;DHT22;40108;53.152;5.844;2022-12-08T06:25:05;1.70;96.90
54202;DHT22;40108;53.152;5.844;2022-12-08T06:27:32;1.70;96.90
54202;DHT22;40108;53.152;5.844;2022-12-08T06:29:58;1.70;96.90
54202;DHT22;40108;53.152;5.844;2022-12-08T06:32:24;1.70;96.90
54202;DHT22;40108;53.152;5.844;2022-12-08T06:34:49;1.60;96.90
54202;DHT22;40108;53.152;5.844;2022-12-08T06:37:15;1.50;96.90
54202;DHT22;40108;53.152;5.844;2022-12-08T06:39:41;1.50;96.80
54202;DHT22;40108;53.152;5.844;2022-12-08T06:42:07;1.50;96.80
54202;DHT22;40108;53.152;5.844;2022-12-08T06:44:51;1.40;96.80
54202;DHT22;40108;53.152;5.844;2022-12-08T06:47:17;1.40;96.80
54202;DHT22;40108;53.152;5.844;2022-12-08T06:49:42;1.30;96.70
54202;DHT22;40108;53.152;5.844;2022-12-08T06:52:08;1.30;96.80
54202;DHT22;40108;53.152;5.844;2022-12-08T06:54:33;1.20;96.70
54202;DHT22;40108;53.152;5.844;2022-12-08T06:56:59;1.20;96.70
54202;DHT22;40108;53.152;5.844;2022-12-08T06:59:25;1.20;96.70
54202;DHT22;40108;53.152;5.844;2022-12-08T07:01:51;1.20;96.70
54202;DHT22;40108;53.152;5.844;2022-12-08T07:04:17;1.20;96.70
54202;DHT22;40108;53.152;5.844;2022-12-08T07:06:42;1.10;96.70
54202;DHT22;40108;53.152;5.844;2022-12-08T07:09:08;1.10;96.70
54202;DHT22;40108;53.152;5.844;2022-12-08T07:11:35;1.00;96.70
54202;DHT22;40108;53.152;5.844;2022-12-08T07:14:02;0.90;96.70
54202;DHT22;40108;53.152;5.844;2022-12-08T07:16:27;0.90;96.70
54202;DHT22;40108;53.152;5.844;2022-12-08T07:18:53;0.90;96.70
54202;DHT22;40108;53.152;5.844;2022-12-08T07:21:19;0.80;96.70
54202;DHT22;40108;53.152;5.844;2022-12-08T07:23:46;0.80;96.70
54202;DHT22;40108;53.152;5.844;2022-12-08T07:26:12;0.80;96.70
54202;DHT22;40108;53.152;5.844;2022-12-08T07:28:39;0.70;96.70
54202;DHT22;40108;53.152;5.844;2022-12-08T07:31:06;0.70;96.70
54202;DHT22;40108;53.152;5.844;2022-12-08T07:33:33;0.70;96.70
54202;DHT22;40108;53.152;5.844;2022-12-08T07:36:03;0.60;96.70
54202;DHT22;40108;53.152;5.844;2022-12-08T07:38:29;0.60;96.70
54202;DHT22;40108;53.152;5.844;2022-12-08T07:40:55;0.60;96.70
54202;DHT22;40108;53.152;5.844;2022-12-08T07:43:21;0.60;96.80
54202;DHT22;40108;53.152;5.844;2022-12-08T07:45:48;0.50;96.70
54202;DHT22;40108;53.152;5.844;2022-12-08T07:48:14;0.60;96.80
54202;DHT22;40108;53.152;5.844;2022-12-08T07:50:40;0.60;96.70
54202;DHT22;40108;53.152;5.844;2022-12-08T07:53:06;0.60;96.70
54202;DHT22;40108;53.152;5.844;2022-12-08T07:55:32;0.50;96.70
54202;DHT22;40108;53.152;5.844;2022-12-08T07:57:58;0.50;96.70
54202;DHT22;40108;53.152;5.844;2022-12-08T08:00:23;0.60;96.70
54202;DHT22;40108;53.152;5.844;2022-12-08T08:02:49;0.50;96.70
54202;DHT22;40108;53.152;5.844;2022-12-08T08:05:15;0.60;96.60
54202;DHT22;40108;53.152;5.844;2022-12-08T08:07:41;0.60;96.60
54202;DHT22;40108;53.152;5.844;2022-12-08T08:10:09;0.60;96.60
54202;DHT22;40108;53.152;5.844;2022-12-08T08:12:36;0.60;96.60
54202;DHT22;40108;53.152;5.844;2022-12-08T08:15:04;0.60;96.50
54202;DHT22;40108;53.152;5.844;2022-12-08T08:17:32;0.50;96.50
54202;DHT22;40108;53.152;5.844;2022-12-08T08:19:59;0.50;96.40
54202;DHT22;40108;53.152;5.844;2022-12-08T08:22:25;0.40;96.40
54202;DHT22;40108;53.152;5.844;2022-12-08T08:24:51;0.40;96.50
54202;DHT22;40108;53.152;5.844;2022-12-08T08:27:17;0.50;96.50
54202;DHT22;40108;53.152;5.844;2022-12-08T08:29:43;0.50;96.50
54202;DHT22;40108;53.152;5.844;2022-12-08T08:32:09;0.40;96.60
54202;DHT22;40108;53.152;5.844;2022-12-08T08:34:34;0.50;96.50
54202;DHT22;40108;53.152;5.844;2022-12-08T08:37:00;0.50;96.60
54202;DHT22;40108;53.152;5.844;2022-12-08T08:39:26;0.50;96.60
54202;DHT22;40108;53.152;5.844;2022-12-08T08:41:52;0.60;96.70
54202;DHT22;40108;53.152;5.844;2022-12-08T08:44:17;0.70;96.80
54202;DHT22;40108;53.152;5.844;2022-12-08T08:46:43;0.70;96.80
54202;DHT22;40108;53.152;5.844;2022-12-08T08:49:09;0.80;96.80
54202;DHT22;40108;53.152;5.844;2022-12-08T08:51:34;0.80;96.70
54202;DHT22;40108;53.152;5.844;2022-12-08T08:54:00;0.90;96.70
54202;DHT22;40108;53.152;5.844;2022-12-08T08:56:26;0.90;96.70
54202;DHT22;40108;53.152;5.844;2022-12-08T08:58:52;0.90;96.70
54202;DHT22;40108;53.152;5.844;2022-12-08T09:01:23;0.90;96.70
54202;DHT22;40108;53.152;5.844;2022-12-08T09:03:50;1.00;96.70
54202;DHT22;40108;53.152;5.844;2022-12-08T09:06:16;1.00;96.60
54202;DHT22;40108;53.152;5.844;2022-12-08T09:08:43;0.90;96.50
54202;DHT22;40108;53.152;5.844;2022-12-08T09:11:09;1.00;96.60
54202;DHT22;40108;53.152;5.844;2022-12-08T09:13:34;1.00;96.50
54202;DHT22;40108;53.152;5.844;2022-12-08T09:16:02;1.00;96.50
54202;DHT22;40108;53.152;5.844;2022-12-08T09:18:28;1.00;96.50
54202;DHT22;40108;53.152;5.844;2022-12-08T09:20:54;1.00;96.50
54202;DHT22;40108;53.152;5.844;2022-12-08T09:23:19;1.10;96.60
54202;DHT22;40108;53.152;5.844;2022-12-08T09:25:45;1.30;96.80
54202;DHT22;40108;53.152;5.844;2022-12-08T09:28:11;1.60;97.00
54202;DHT22;40108;53.152;5.844;2022-12-08T09:30:38;1.90;97.10
54202;DHT22;40108;53.152;5.844;2022-12-08T09:33:03;2.20;97.00
54202;DHT22;40108;53.152;5.844;2022-12-08T09:35:29;2.50;97.10
54202;DHT22;40108;53.152;5.844;2022-12-08T09:37:55;2.70;96.90
54202;DHT22;40108;53.152;5.844;2022-12-08T09:40:22;2.90;96.80
54202;DHT22;40108;53.152;5.844;2022-12-08T09:43:04;3.20;96.60
54202;DHT22;40108;53.152;5.844;2022-12-08T09:45:34;3.20;96.10
54202;DHT22;40108;53.152;5.844;2022-12-08T09:50:50;3.20;95.20
54202;DHT22;40108;53.152;5.844;2022-12-08T09:53:43;3.20;95.00
54202;DHT22;40108;53.152;5.844;2022-12-08T09:56:18;3.20;94.40
54202;DHT22;40108;53.152;5.844;2022-12-08T09:58:55;3.00;93.50
54202;DHT22;40108;53.152;5.844;2022-12-08T10:01:25;2.90;93.30
54202;DHT22;40108;53.152;5.844;2022-12-08T10:03:51;2.90;93.20
54202;DHT22;40108;53.152;5.844;2022-12-08T10:06:41;3.00;93.30
54202;DHT22;40108;53.152;5.844;2022-12-08T10:11:48;3.20;93.50
54202;DHT22;40108;53.152;5.844;2022-12-08T10:16:53;3.60;93.90
54202;DHT22;40108;53.152;5.844;2022-12-08T10:19:24;3.80;94.10
54202;DHT22;40108;53.152;5.844;2022-12-08T10:21:52;4.20;94.30
54202;DHT22;40108;53.152;5.844;2022-12-08T10:24:31;4.40;94.00
54202;DHT22;40108;53.152;5.844;2022-12-08T10:27:00;4.60;93.40
54202;DHT22;40108;53.152;5.844;2022-12-08T10:29:26;4.60;93.00
54202;DHT22;40108;53.152;5.844;2022-12-08T10:31:52;4.50;92.60
54202;DHT22;40108;53.152;5.844;2022-12-08T10:34:19;4.50;92.20
54202;DHT22;40108;53.152;5.844;2022-12-08T10:36:55;4.40;92.30
54202;DHT22;40108;53.152;5.844;2022-12-08T10:39:36;4.20;92.00
54202;DHT22;40108;53.152;5.844;2022-12-08T10:42:17;4.10;92.10
54202;DHT22;40108;53.152;5.844;2022-12-08T10:47:26;3.90;92.10
54202;DHT22;40108;53.152;5.844;2022-12-08T10:50:21;3.70;92.00
54202;DHT22;40108;53.152;5.844;2022-12-08T10:53:12;3.50;92.00
54202;DHT22;40108;53.152;5.844;2022-12-08T10:58:35;3.30;92.50
54202;DHT22;40108;53.152;5.844;2022-12-08T11:01:24;3.30;92.70
54202;DHT22;40108;53.152;5.844;2022-12-08T11:03:53;3.40;92.90
54202;DHT22;40108;53.152;5.844;2022-12-08T11:08:53;3.70;93.70
54202;DHT22;40108;53.152;5.844;2022-12-08T11:11:20;4.20;94.20
54202;DHT22;40108;53.152;5.844;2022-12-08T11:13:48;4.40;93.70
54202;DHT22;40108;53.152;5.844;2022-12-08T11:16:15;4.50;93.10
54202;DHT22;40108;53.152;5.844;2022-12-08T11:18:46;4.50;92.70
54202;DHT22;40108;53.152;5.844;2022-12-08T11:21:19;4.50;92.50
54202;DHT22;40108;53.152;5.844;2022-12-08T11:23:49;4.50;92.50
54202;DHT22;40108;53.152;5.844;2022-12-08T11:26:25;4.50;92.40
54202;DHT22;40108;53.152;5.844;2022-12-08T11:28:52;4.60;92.60
54202;DHT22;40108;53.152;5.844;2022-12-08T11:31:24;4.70;92.40
54202;DHT22;40108;53.152;5.844;2022-12-08T11:33:51;4.80;92.40
54202;DHT22;40108;53.152;5.844;2022-12-08T11:36:21;5.00;92.00
54202;DHT22;40108;53.152;5.844;2022-12-08T11:38:49;5.20;91.90
54202;DHT22;40108;53.152;5.844;2022-12-08T11:41:19;5.40;91.70
54202;DHT22;40108;53.152;5.844;2022-12-08T11:49:08;5.70;90.30
54202;DHT22;40108;53.152;5.844;2022-12-08T11:54:28;5.70;89.80
54202;DHT22;40108;53.152;5.844;2022-12-08T11:56:57;5.60;89.00
54202;DHT22;40108;53.152;5.844;2022-12-08T11:59:37;5.60;89.80
54202;DHT22;40108;53.152;5.844;2022-12-08T12:02:05;5.60;90.10
54202;DHT22;40108;53.152;5.844;2022-12-08T12:04:46;5.50;90.20
54202;DHT22;40108;53.152;5.844;2022-12-08T12:18:09;4.80;90.50
54202;DHT22;40108;53.152;5.844;2022-12-08T12:20:45;4.70;90.80
54202;DHT22;40108;53.152;5.844;2022-12-08T12:23:40;4.60;90.80
54202;DHT22;40108;53.152;5.844;2022-12-08T12:26:15;4.60;91.10
54202;DHT22;40108;53.152;5.844;2022-12-08T12:29:17;4.60;91.20
54202;DHT22;40108;53.152;5.844;2022-12-08T12:31:48;4.70;91.20
54202;DHT22;40108;53.152;5.844;2022-12-08T12:34:34;4.70;91.40
54202;DHT22;40108;53.152;5.844;2022-12-08T12:39:58;5.00;91.60
54202;DHT22;40108;53.152;5.844;2022-12-08T12:42:47;5.20;91.60
54202;DHT22;40108;53.152;5.844;2022-12-08T12:45:34;5.20;91.30
54202;DHT22;40108;53.152;5.844;2022-12-08T12:55:57;5.50;91.20
54202;DHT22;40108;53.152;5.844;2022-12-08T13:04:06;5.40;90.00
54202;DHT22;40108;53.152;5.844;2022-12-08T13:06:39;5.40;90.20
54202;DHT22;40108;53.152;5.844;2022-12-08T13:09:12;5.40;89.90
54202;DHT22;40108;53.152;5.844;2022-12-08T13:11:52;5.30;89.00
54202;DHT22;40108;53.152;5.844;2022-12-08T13:16:55;5.20;89.30
54202;DHT22;40108;53.152;5.844;2022-12-08T13:19:22;5.10;89.10
54202;DHT22;40108;53.152;5.844;2022-12-08T13:21:47;5.00;89.30
54202;DHT22;40108;53.152;5.844;2022-12-08T13:29:24;4.80;89.60
54202;DHT22;40108;53.152;5.844;2022-12-08T13:31:54;4.80;89.80
54202;DHT22;40108;53.152;5.844;2022-12-08T13:44:51;4.60;90.30
54202;DHT22;40108;53.152;5.844;2022-12-08T13:50:12;4.50;90.30
54202;DHT22;40108;53.152;5.844;2022-12-08T13:52:53;4.40;90.30
54202;DHT22;40108;53.152;5.844;2022-12-08T13:55:58;4.40;90.40
54202;DHT22;40108;53.152;5.844;2022-12-08T13:58:25;4.30;90.50
54202;DHT22;40108;53.152;5.844;2022-12-08T14:03:55;4.20;90.60
54202;DHT22;40108;53.152;5.844;2022-12-08T14:06:30;4.10;90.60
54202;DHT22;40108;53.152;5.844;2022-12-08T14:09:02;4.00;90.80
54202;DHT22;40108;53.152;5.844;2022-12-08T14:11:34;4.00;90.90
54202;DHT22;40108;53.152;5.844;2022-12-08T14:14:20;3.90;91.00
54202;DHT22;40108;53.152;5.844;2022-12-08T14:16:54;3.80;91.00
54202;DHT22;40108;53.152;5.844;2022-12-08T14:19:24;3.70;91.00
54202;DHT22;40108;53.152;5.844;2022-12-08T14:21:55;3.70;90.90
54202;DHT22;40108;53.152;5.844;2022-12-08T14:24:22;3.70;91.20
54202;DHT22;40108;53.152;5.844;2022-12-08T14:26:52;3.60;91.20
54202;DHT22;40108;53.152;5.844;2022-12-08T14:29:42;3.50;91.30
54202;DHT22;40108;53.152;5.844;2022-12-08T14:34:44;3.40;91.50
54202;DHT22;40108;53.152;5.844;2022-12-08T14:37:11;3.30;91.50
54202;DHT22;40108;53.152;5.844;2022-12-08T14:39:38;3.20;91.70
54202;DHT22;40108;53.152;5.844;2022-12-08T14:42:05;3.20;91.90
54202;DHT22;40108;53.152;5.844;2022-12-08T14:44:34;3.20;92.00
54202;DHT22;40108;53.152;5.844;2022-12-08T14:47:07;3.20;91.90
54202;DHT22;40108;53.152;5.844;2022-12-08T14:49:38;3.10;91.80
54202;DHT22;40108;53.152;5.844;2022-12-08T14:52:11;3.00;91.90
54202;DHT22;40108;53.152;5.844;2022-12-08T14:54:38;2.90;91.90
54202;DHT22;40108;53.152;5.844;2022-12-08T14:57:05;2.80;92.00
54202;DHT22;40108;53.152;5.844;2022-12-08T14:59:36;2.80;92.00
54202;DHT22;40108;53.152;5.844;2022-12-08T15:05:00;2.70;92.20
54202;DHT22;40108;53.152;5.844;2022-12-08T15:07:29;2.70;92.40
54202;DHT22;40108;53.152;5.844;2022-12-08T15:12:54;2.50;92.60
54202;DHT22;40108;53.152;5.844;2022-12-08T15:15:21;2.40;92.60
54202;DHT22;40108;53.152;5.844;2022-12-08T15:17:56;2.40;92.70
54202;DHT22;40108;53.152;5.844;2022-12-08T15:20:51;2.30;92.70
54202;DHT22;40108;53.152;5.844;2022-12-08T15:23:29;2.20;92.80
54202;DHT22;40108;53.152;5.844;2022-12-08T15:25:56;2.20;93.00
54202;DHT22;40108;53.152;5.844;2022-12-08T15:28:24;2.20;93.00
54202;DHT22;40108;53.152;5.844;2022-12-08T15:30:51;2.20;93.20
54202;DHT22;40108;53.152;5.844;2022-12-08T15:33:17;2.10;93.30
54202;DHT22;40108;53.152;5.844;2022-12-08T15:35:43;2.10;93.40
54202;DHT22;40108;53.152;5.844;2022-12-08T15:38:28;2.00;93.30
54202;DHT22;40108;53.152;5.844;2022-12-08T15:40:55;1.90;93.30
54202;DHT22;40108;53.152;5.844;2022-12-08T15:43:21;1.90;93.40
54202;DHT22;40108;53.152;5.844;2022-12-08T15:45:47;1.90;93.40
54202;DHT22;40108;53.152;5.844;2022-12-08T15:48:43;1.80;93.50
54202;DHT22;40108;53.152;5.844;2022-12-08T15:51:09;1.70;93.40
54202;DHT22;40108;53.152;5.844;2022-12-08T15:53:34;1.70;93.40
54202;DHT22;40108;53.152;5.844;2022-12-08T15:56:04;1.70;93.40
54202;DHT22;40108;53.152;5.844;2022-12-08T15:58:30;1.50;93.40
54202;DHT22;40108;53.152;5.844;2022-12-08T16:00:56;1.50;93.40
54202;DHT22;40108;53.152;5.844;2022-12-08T16:03:27;1.40;93.50
54202;DHT22;40108;53.152;5.844;2022-12-08T16:05:53;1.40;93.50
54202;DHT22;40108;53.152;5.844;2022-12-08T16:08:20;1.30;93.50
54202;DHT22;40108;53.152;5.844;2022-12-08T16:10:46;1.30;93.60
54202;DHT22;40108;53.152;5.844;2022-12-08T16:13:16;1.30;93.50
54202;DHT22;40108;53.152;5.844;2022-12-08T16:16:05;1.20;93.60
54202;DHT22;40108;53.152;5.844;2022-12-08T16:18:36;1.20;93.60
54202;DHT22;40108;53.152;5.844;2022-12-08T16:21:03;1.20;93.70
54202;DHT22;40108;53.152;5.844;2022-12-08T16:23:29;1.20;93.70
54202;DHT22;40108;53.152;5.844;2022-12-08T16:25:56;1.10;93.70
54202;DHT22;40108;53.152;5.844;2022-12-08T16:28:22;1.00;93.70
54202;DHT22;40108;53.152;5.844;2022-12-08T16:30:48;1.00;93.70
54202;DHT22;40108;53.152;5.844;2022-12-08T16:33:14;0.90;93.80
54202;DHT22;40108;53.152;5.844;2022-12-08T16:35:40;0.90;93.80
54202;DHT22;40108;53.152;5.844;2022-12-08T16:38:06;0.80;93.80
54202;DHT22;40108;53.152;5.844;2022-12-08T16:40:32;0.90;93.90
54202;DHT22;40108;53.152;5.844;2022-12-08T16:43:18;0.90;94.00
54202;DHT22;40108;53.152;5.844;2022-12-08T16:45:44;0.90;94.10
54202;DHT22;40108;53.152;5.844;2022-12-08T16:48:12;0.80;94.20
54202;DHT22;40108;53.152;5.844;2022-12-08T16:50:43;0.80;94.20
54202;DHT22;40108;53.152;5.844;2022-12-08T16:53:10;0.80;94.20
54202;DHT22;40108;53.152;5.844;2022-12-08T16:55:37;0.80;94.20
54202;DHT22;40108;53.152;5.844;2022-12-08T16:58:03;0.80;94.20
54202;DHT22;40108;53.152;5.844;2022-12-08T17:00:30;0.80;94.10
54202;DHT22;40108;53.152;5.844;2022-12-08T17:03:01;0.70;94.10
54202;DHT22;40108;53.152;5.844;2022-12-08T17:05:27;0.70;94.30
54202;DHT22;40108;53.152;5.844;2022-12-08T17:07:53;0.70;94.30
54202;DHT22;40108;53.152;5.844;2022-12-08T17:10:21;0.60;94.30
54202;DHT22;40108;53.152;5.844;2022-12-08T17:12:48;0.50;94.50
54202;DHT22;40108;53.152;5.844;2022-12-08T17:15:17;0.50;94.70
54202;DHT22;40108;53.152;5.844;2022-12-08T17:17:43;0.50;94.60
54202;DHT22;40108;53.152;5.844;2022-12-08T17:20:12;0.50;94.50
54202;DHT22;40108;53.152;5.844;2022-12-08T17:22:37;0.50;94.80
54202;DHT22;40108;53.152;5.844;2022-12-08T17:25:04;0.50;95.00
54202;DHT22;40108;53.152;5.844;2022-12-08T17:27:30;0.50;95.00
54202;DHT22;40108;53.152;5.844;2022-12-08T17:29:56;0.50;95.10
54202;DHT22;40108;53.152;5.844;2022-12-08T17:32:21;0.50;95.10
54202;DHT22;40108;53.152;5.844;2022-12-08T17:34:47;0.50;95.10
54202;DHT22;40108;53.152;5.844;2022-12-08T17:37:13;0.50;95.20
54202;DHT22;40108;53.152;5.844;2022-12-08T17:39:39;0.50;95.20
54202;DHT22;40108;53.152;5.844;2022-12-08T17:42:05;0.40;95.10
54202;DHT22;40108;53.152;5.844;2022-12-08T17:44:31;0.40;95.00
54202;DHT22;40108;53.152;5.844;2022-12-08T17:46:58;0.30;95.20
54202;DHT22;40108;53.152;5.844;2022-12-08T17:49:25;0.30;95.10
54202;DHT22;40108;53.152;5.844;2022-12-08T17:51:56;0.30;95.10
54202;DHT22;40108;53.152;5.844;2022-12-08T17:54:23;0.20;95.00
54202;DHT22;40108;53.152;5.844;2022-12-08T17:56:49;0.20;95.10
54202;DHT22;40108;53.152;5.844;2022-12-08T17:59:14;0.20;95.20
54202;DHT22;40108;53.152;5.844;2022-12-08T18:01:40;0.10;95.20